Time;durP1;ratioP1;P1;durP2;ratioP2;P2;SDS_P1;SDS_P2;PMS_P1;PMS_P2;Temp;Humidity;BMP_temperature;BMP_pressure;BME280_temperature;BME280_humidity;BME280_pressure;Samples;Min_cycle;Max_cycle;Signal;HPM_P1;HPM_P2
2024/03/10 00:00:20;;;;;;;;;;;9.30;99.90;;;;;;8425621;28;20253;-70
2024/03/10 00:04:23;;;;;;;;;;;9.30;99.90;;;;;;8423827;28;19930;-70
2024/03/10 00:08:25;;;;;;;;;;;9.20;99.90;;;;;;8407133;28;19924;-71
2024/03/10 00:12:27;;;;;;;;;;;9.20;99.90;;;;;;8421549;28;19920;-70
2024/03/10 00:16:28;;;;;;;;;;;9.20;99.90;;;;;;8402891;28;19920;-70
2024/03/10 00:20:30;;;;;;;;;;;9.20;99.90;;;;;;8421741;28;20508;-70
2024/03/10 00:24:32;;;;;;;;;;;9.20;99.90;;;;;;8421638;28;19928;-70
2024/03/10 00:28:34;;;;;;;;;;;9.20;99.90;;;;;;8424093;28;19927;-70
2024/03/10 00:32:35;;;;;;;;;;;9.20;99.90;;;;;;8402828;28;20136;-70
2024/03/10 00:36:38;;;;;;;;;;;9.10;99.90;;;;;;8422523;28;19928;-70
2024/03/10 00:40:39;;;;;;;;;;;9.20;99.90;;;;;;8423295;28;19927;-70
2024/03/10 00:44:41;;;;;;;;;;;9.10;99.90;;;;;;8403021;28;20279;-70
2024/03/10 00:48:44;;;;;;;;;;;9.10;99.90;;;;;;8422643;28;20287;-70
2024/03/10 00:52:45;;;;;;;;;;;9.10;99.90;;;;;;8418696;28;19920;-70
2024/03/10 00:56:47;;;;;;;;;;;9.10;99.90;;;;;;8423399;28;19920;-70
2024/03/10 01:05:52;;;;;;;;;;;9.10;99.90;;;;;;8419835;28;19930;-72
2024/03/10 01:09:54;;;;;;;;;;;9.20;99.90;;;;;;8403961;28;19950;-72
2024/03/10 01:13:56;;;;;;;;;;;9.10;99.90;;;;;;8401206;28;19920;-72
2024/03/10 01:17:58;;;;;;;;;;;9.10;99.90;;;;;;8403264;28;19920;-72
2024/03/10 01:22:00;;;;;;;;;;;9.10;99.90;;;;;;8421458;28;19947;-72
2024/03/10 01:26:01;;;;;;;;;;;9.00;99.90;;;;;;8420433;28;20295;-72
2024/03/10 01:30:03;;;;;;;;;;;9.00;99.90;;;;;;8403297;28;19927;-72
2024/03/10 01:34:05;;;;;;;;;;;8.90;99.90;;;;;;8407943;28;20359;-72
2024/03/10 01:38:07;;;;;;;;;;;8.80;99.90;;;;;;8428501;28;19942;-72
2024/03/10 01:42:10;;;;;;;;;;;8.70;99.90;;;;;;8428275;28;20015;-72
2024/03/10 01:46:12;;;;;;;;;;;8.70;99.90;;;;;;8426204;28;19981;-72
2024/03/10 01:50:15;;;;;;;;;;;8.70;99.90;;;;;;8427648;28;20317;-72
2024/03/10 01:54:17;;;;;;;;;;;8.70;99.90;;;;;;8426121;28;20351;-72
2024/03/10 01:58:19;;;;;;;;;;;8.70;99.90;;;;;;8430162;28;19924;-73
2024/03/10 02:02:22;;;;;;;;;;;8.70;99.90;;;;;;8425700;28;20380;-72
2024/03/10 02:06:25;;;;;;;;;;;8.70;99.90;;;;;;8407194;28;19928;-72
2024/03/10 02:10:27;;;;;;;;;;;8.70;99.90;;;;;;8427240;28;20000;-72
2024/03/10 02:14:28;;;;;;;;;;;8.70;99.90;;;;;;8423874;28;19965;-72
2024/03/10 02:18:32;;;;;;;;;;;8.70;99.90;;;;;;8407369;28;19928;-72
2024/03/10 02:22:34;;;;;;;;;;;8.70;99.90;;;;;;8426451;28;19920;-72
2024/03/10 02:27:01;;;;;;;;;;;8.70;99.90;;;;;;8423667;28;19973;-72
2024/03/10 02:48:29;;;;;;;;;;;8.70;99.90;;;;;;8298371;28;20300;-72
2024/03/10 02:52:30;;;;;;;;;;;8.70;99.90;;;;;;8362365;28;19974;-72
2024/03/10 02:56:32;;;;;;;;;;;8.70;99.90;;;;;;8424227;28;19927;-72
2024/03/10 03:00:35;;;;;;;;;;;8.70;99.90;;;;;;8425078;28;19928;-72
2024/03/10 03:04:38;;;;;;;;;;;8.60;99.90;;;;;;8404363;28;20363;-72
2024/03/10 03:08:40;;;;;;;;;;;8.60;99.90;;;;;;8407311;28;19927;-72
2024/03/10 03:12:44;;;;;;;;;;;8.60;99.90;;;;;;8423720;28;20002;-72
2024/03/10 03:16:46;;;;;;;;;;;8.60;99.90;;;;;;8394650;28;19919;-72
2024/03/10 03:20:48;;;;;;;;;;;8.50;99.90;;;;;;8424508;28;19920;-72
2024/03/10 03:24:50;;;;;;;;;;;8.50;99.90;;;;;;8404595;28;19927;-72
2024/03/10 03:28:52;;;;;;;;;;;8.40;99.90;;;;;;8424828;28;19919;-72
2024/03/10 03:37:33;;;;;;;;;;;8.30;99.90;;;;;;8421600;28;19919;-72
2024/03/10 03:41:35;;;;;;;;;;;8.30;99.90;;;;;;8406845;28;20325;-72
2024/03/10 03:45:37;;;;;;;;;;;8.20;99.90;;;;;;8404387;28;19924;-72
2024/03/10 03:49:38;;;;;;;;;;;8.20;99.90;;;;;;8405810;28;19920;-72
2024/03/10 03:53:40;;;;;;;;;;;8.20;99.90;;;;;;8423646;28;19920;-72
2024/03/10 03:57:42;;;;;;;;;;;8.10;99.90;;;;;;8404407;28;19920;-72
2024/03/10 04:01:43;;;;;;;;;;;8.10;99.90;;;;;;8422060;28;19920;-72
2024/03/10 04:05:46;;;;;;;;;;;8.00;99.90;;;;;;8422571;28;19920;-72
2024/03/10 04:09:48;;;;;;;;;;;7.90;99.90;;;;;;8404859;28;19919;-72
2024/03/10 04:13:50;;;;;;;;;;;7.80;99.90;;;;;;8404182;28;19927;-72
2024/03/10 04:17:52;;;;;;;;;;;7.80;99.90;;;;;;8419933;28;19920;-72
2024/03/10 04:21:54;;;;;;;;;;;7.70;99.90;;;;;;8422682;28;20414;-72
2024/03/10 04:41:00;;;;;;;;;;;7.50;99.90;;;;;;8418063;28;20378;-73
2024/03/10 04:45:01;;;;;;;;;;;7.50;99.90;;;;;;8422318;28;20424;-72
2024/03/10 04:49:03;;;;;;;;;;;7.50;99.90;;;;;;8418793;28;19919;-72
2024/03/10 04:53:05;;;;;;;;;;;7.50;99.90;;;;;;8403260;28;19920;-72
2024/03/10 04:57:07;;;;;;;;;;;7.50;99.90;;;;;;8420905;28;19931;-72
2024/03/10 05:01:09;;;;;;;;;;;7.50;99.90;;;;;;8399324;28;19931;-72
2024/03/10 05:05:11;;;;;;;;;;;7.50;99.90;;;;;;8402375;28;20015;-72
2024/03/10 05:09:13;;;;;;;;;;;7.50;99.90;;;;;;8403997;28;19920;-72
2024/03/10 05:13:14;;;;;;;;;;;7.40;99.90;;;;;;8419793;28;19935;-72
2024/03/10 05:17:16;;;;;;;;;;;7.40;99.90;;;;;;8414610;28;19920;-72
2024/03/10 05:21:18;;;;;;;;;;;7.40;99.90;;;;;;8403384;28;19969;-72
2024/03/10 05:25:19;;;;;;;;;;;7.30;99.90;;;;;;8417559;28;20444;-72
2024/03/10 05:34:24;;;;;;;;;;;7.30;99.90;;;;;;8406715;28;19969;-72
2024/03/10 05:38:26;;;;;;;;;;;7.30;99.90;;;;;;8401352;28;19981;-72
2024/03/10 05:42:28;;;;;;;;;;;7.20;99.90;;;;;;8406919;28;19920;-72
2024/03/10 05:46:30;;;;;;;;;;;7.20;99.90;;;;;;8418932;28;19977;-72
2024/03/10 05:50:32;;;;;;;;;;;7.20;99.90;;;;;;8402754;28;19973;-72
2024/03/10 05:54:34;;;;;;;;;;;7.20;99.90;;;;;;8417975;28;19920;-72
2024/03/10 05:58:38;;;;;;;;;;;7.20;99.90;;;;;;8411029;28;19920;-72
2024/03/10 06:02:41;;;;;;;;;;;7.20;99.90;;;;;;8412929;28;19939;-72
2024/03/10 06:06:43;;;;;;;;;;;7.20;99.90;;;;;;8398601;28;19928;-72
2024/03/10 06:10:45;;;;;;;;;;;7.20;99.90;;;;;;8418541;28;19920;-72
2024/03/10 06:14:48;;;;;;;;;;;7.20;99.90;;;;;;8414534;28;19923;-72
2024/03/10 06:27:18;;;;;;;;;;;7.20;99.90;;;;;;8425119;28;19920;-72
2024/03/10 06:31:20;;;;;;;;;;;7.20;99.90;;;;;;8424618;28;19923;-72
2024/03/10 06:35:22;;;;;;;;;;;7.10;99.90;;;;;;8423618;28;19920;-72
2024/03/10 06:39:24;;;;;;;;;;;7.10;99.90;;;;;;8423067;28;19928;-72
2024/03/10 06:43:26;;;;;;;;;;;7.10;99.90;;;;;;8408561;28;19935;-72
2024/03/10 06:47:28;;;;;;;;;;;7.10;99.90;;;;;;8414535;28;19986;-72
2024/03/10 06:51:30;;;;;;;;;;;7.10;99.90;;;;;;8420249;28;19973;-72
2024/03/10 06:55:32;;;;;;;;;;;7.10;99.90;;;;;;8407040;28;20022;-72
2024/03/10 06:59:34;;;;;;;;;;;7.20;99.90;;;;;;8425298;28;19931;-72
2024/03/10 07:03:36;;;;;;;;;;;7.20;99.90;;;;;;8408604;28;19927;-72
2024/03/10 07:07:38;;;;;;;;;;;7.30;99.90;;;;;;8423838;28;19919;-72
2024/03/10 07:11:39;;;;;;;;;;;7.30;99.90;;;;;;8426226;28;19957;-72
2024/03/10 07:15:41;;;;;;;;;;;7.30;99.90;;;;;;8420502;28;19951;-72
2024/03/10 07:19:43;;;;;;;;;;;7.40;99.90;;;;;;8423400;28;19920;-72
2024/03/10 07:23:45;;;;;;;;;;;7.50;99.90;;;;;;8409139;28;20395;-72
2024/03/10 07:27:47;;;;;;;;;;;7.70;99.90;;;;;;8423022;28;19921;-72
2024/03/10 07:31:49;;;;;;;;;;;7.80;99.90;;;;;;8406881;28;19920;-72
2024/03/10 07:35:51;;;;;;;;;;;8.00;99.90;;;;;;8424653;28;19970;-72
2024/03/10 07:39:53;;;;;;;;;;;8.10;99.90;;;;;;8422037;28;19920;-72
2024/03/10 07:43:55;;;;;;;;;;;8.10;99.90;;;;;;8425319;28;19930;-72
2024/03/10 07:47:58;;;;;;;;;;;8.20;99.90;;;;;;8422065;28;20393;-72
2024/03/10 07:51:59;;;;;;;;;;;8.30;99.90;;;;;;8426012;28;19920;-72
2024/03/10 07:56:01;;;;;;;;;;;8.40;99.90;;;;;;8425268;28;19927;-72
2024/03/10 08:00:16;;;;;;;;;;;8.50;99.90;;;;;;8421454;28;19920;-72
2024/03/10 08:04:19;;;;;;;;;;;8.60;99.90;;;;;;8405504;28;20051;-72
2024/03/10 08:08:21;;;;;;;;;;;8.70;99.90;;;;;;8425313;28;19942;-72
2024/03/10 08:12:22;;;;;;;;;;;8.80;99.90;;;;;;8423141;28;20381;-72
2024/03/10 08:16:25;;;;;;;;;;;8.90;99.90;;;;;;8401371;28;19928;-72
2024/03/10 08:20:27;;;;;;;;;;;9.00;99.90;;;;;;8421517;28;19961;-72
2024/03/10 08:24:29;;;;;;;;;;;9.10;99.90;;;;;;8425858;28;19920;-72
2024/03/10 08:28:30;;;;;;;;;;;9.20;99.90;;;;;;8424669;28;20348;-72
2024/03/10 08:32:33;;;;;;;;;;;9.20;99.90;;;;;;8422108;28;19926;-72
2024/03/10 08:36:36;;;;;;;;;;;9.30;99.90;;;;;;8424306;28;19931;-73
2024/03/10 08:40:38;;;;;;;;;;;9.40;99.90;;;;;;8419968;28;19965;-72
2024/03/10 08:44:40;;;;;;;;;;;9.40;99.90;;;;;;8422972;28;19920;-72
2024/03/10 08:48:42;;;;;;;;;;;9.50;99.90;;;;;;8423277;28;19924;-72
2024/03/10 08:52:44;;;;;;;;;;;9.50;99.90;;;;;;8401928;28;19924;-72
2024/03/10 08:56:48;;;;;;;;;;;9.60;99.90;;;;;;8424074;28;19977;-72
2024/03/10 09:00:50;;;;;;;;;;;9.70;99.90;;;;;;8400702;28;20338;-72
2024/03/10 09:04:52;;;;;;;;;;;9.70;99.90;;;;;;8420747;28;20318;-72
2024/03/10 09:08:54;;;;;;;;;;;9.80;99.90;;;;;;8421416;28;20299;-72
2024/03/10 09:12:56;;;;;;;;;;;9.80;99.90;;;;;;8405223;28;19973;-72
2024/03/10 09:17:00;;;;;;;;;;;9.90;99.90;;;;;;8415577;28;19957;-72
2024/03/10 09:21:02;;;;;;;;;;;9.90;99.90;;;;;;8421813;28;19924;-72
2024/03/10 09:25:06;;;;;;;;;;;10.00;99.90;;;;;;8403240;28;19934;-72
2024/03/10 09:29:09;;;;;;;;;;;10.00;99.90;;;;;;8406518;28;19924;-72
2024/03/10 09:33:11;;;;;;;;;;;10.20;99.90;;;;;;8404442;28;20010;-72
2024/03/10 09:37:13;;;;;;;;;;;10.20;99.90;;;;;;8420194;28;20286;-72
2024/03/10 09:41:15;;;;;;;;;;;10.30;99.90;;;;;;8402895;28;20059;-72
2024/03/10 09:55:15;;;;;;;;;;;10.60;99.90;;;;;;8425528;28;20298;-72
2024/03/10 09:59:24;;;;;;;;;;;10.70;99.90;;;;;;8414887;28;19974;-72
2024/03/10 10:03:26;;;;;;;;;;;10.80;99.90;;;;;;8393785;28;19919;-72
2024/03/10 10:07:29;;;;;;;;;;;11.00;99.90;;;;;;8396911;28;19920;-72
2024/03/10 10:11:30;;;;;;;;;;;11.10;99.90;;;;;;8378577;28;19971;-72
2024/03/10 10:15:32;;;;;;;;;;;11.30;99.90;;;;;;8382000;28;19920;-72
2024/03/10 10:19:36;;;;;;;;;;;11.60;99.90;;;;;;8401028;28;20276;-72
2024/03/10 10:23:38;;;;;;;;;;;11.80;99.90;;;;;;8386990;28;20359;-72
2024/03/10 10:27:51;;;;;;;16.77;10.18;;;12.00;99.90;;;;;;8399259;28;19928;-72
2024/03/10 10:32:00;;;;;;;16.60;10.50;;;12.20;99.90;;;;;;8399423;28;20079;-72
2024/03/10 10:36:05;;;;;;;17.02;10.68;;;12.50;99.90;;;;;;8397247;28;20495;-72
2024/03/10 10:40:11;;;;;;;15.20;9.32;;;12.60;99.90;;;;;;8403447;28;20049;-72
2024/03/10 10:44:15;;;;;;;17.90;10.88;;;12.70;99.90;;;;;;8386751;28;20048;-72
2024/03/10 10:48:18;;;;;;;15.85;9.65;;;12.80;99.90;;;;;;8395442;28;20097;-72
2024/03/10 10:52:20;;;;;;;16.05;10.40;;;13.00;99.90;;;;;;8399008;28;20515;-72
2024/03/10 10:56:22;;;;;;;16.83;10.30;;;13.20;99.90;;;;;;8400836;28;20396;-72
2024/03/10 11:00:29;;;;;;;15.40;10.05;;;13.30;99.90;;;;;;8398903;28;20540;-72
2024/03/10 11:09:54;;;;;;;17.75;10.93;;;14.30;99.90;;;;;;8393141;28;20387;-72
2024/03/10 11:13:56;;;;;;;18.27;10.68;;;15.00;99.90;;;;;;8390775;28;20092;-72
2024/03/10 11:18:21;;;;;;;15.70;10.50;;;15.20;99.90;;;;;;8372869;28;20052;-72
2024/03/10 11:22:31;;;;;;;16.25;10.35;;;15.20;99.90;;;;;;8365679;28;20063;-72
2024/03/10 11:26:33;;;;;;;16.70;10.75;;;15.10;99.90;;;;;;8388055;28;20040;-73
2024/03/10 11:30:41;;;;;;;15.57;10.90;;;15.10;99.90;;;;;;8386157;28;20147;-72
2024/03/10 11:34:43;;;;;;;16.73;11.25;;;14.90;99.90;;;;;;8385826;28;20040;-72
2024/03/10 11:38:45;;;;;;;16.90;10.55;;;14.80;99.90;;;;;;8369628;28;20032;-72
2024/03/10 11:42:47;;;;;;;18.00;11.93;;;14.60;99.90;;;;;;8360704;28;20060;-70
2024/03/10 11:46:49;;;;;;;16.75;10.52;;;14.60;99.90;;;;;;8386580;28;20044;-70
2024/03/10 11:50:54;;;;;;;16.20;11.40;;;14.70;99.90;;;;;;8383465;28;20071;-70
2024/03/10 11:54:59;;;;;;;19.20;11.75;;;14.70;99.90;;;;;;8375647;28;20496;-70
2024/03/10 11:59:03;;;;;;;20.10;11.93;;;14.80;99.90;;;;;;8366373;28;20049;-70
2024/03/10 12:03:06;;;;;;;17.40;11.02;;;14.80;99.90;;;;;;8390671;28;20097;-70
2024/03/10 12:07:08;;;;;;;17.30;10.70;;;14.80;99.90;;;;;;8395203;28;20048;-70
2024/03/10 12:11:11;;;;;;;17.23;11.45;;;15.00;99.90;;;;;;8391857;28;20052;-71
2024/03/10 12:15:18;;;;;;;15.80;9.88;;;15.20;99.90;;;;;;8390460;28;20045;-70
2024/03/10 12:19:21;;;;;;;17.30;10.60;;;15.40;99.90;;;;;;8395194;28;20047;-70
2024/03/10 12:23:24;;;;;;;17.00;10.00;;;15.50;99.90;;;;;;8395831;28;20087;-70
2024/03/10 12:27:27;;;;;;;16.33;9.90;;;15.60;99.90;;;;;;8396138;28;20380;-70
2024/03/10 12:31:29;;;;;;;16.05;10.15;;;15.50;99.90;;;;;;8393602;28;20048;-70
2024/03/10 12:35:31;;;;;;;16.38;10.40;;;15.60;99.90;;;;;;8393438;28;20048;-70
2024/03/10 12:39:33;;;;;;;16.40;10.82;;;15.40;99.90;;;;;;8392223;28;20049;-70
2024/03/10 12:43:41;;;;;;;17.27;10.98;;;15.30;99.90;;;;;;8391156;28;20522;-70
2024/03/10 12:47:45;;;;;;;17.33;11.65;;;15.20;99.90;;;;;;8378618;28;20405;-70
2024/03/10 12:51:48;;;;;;;18.95;12.25;;;15.10;99.90;;;;;;8393547;28;20078;-70
2024/03/10 12:55:50;;;;;;;20.75;11.73;;;15.10;99.90;;;;;;8389513;28;20182;-70
2024/03/10 12:59:53;;;;;;;19.67;13.00;;;15.20;99.90;;;;;;8392080;28;20044;-70
2024/03/10 13:03:55;;;;;;;20.42;12.05;;;15.40;99.90;;;;;;8390946;28;20044;-70
2024/03/10 13:07:58;;;;;;;20.30;13.57;;;15.40;99.90;;;;;;8374413;28;20071;-70
2024/03/10 13:12:00;;;;;;;21.08;13.00;;;15.40;99.90;;;;;;8379660;28;20040;-70
2024/03/10 13:16:02;;;;;;;19.95;12.98;;;15.40;99.90;;;;;;8396598;28;20036;-71
2024/03/10 13:20:10;;;;;;;18.58;12.57;;;15.50;99.90;;;;;;8396575;28;20127;-70
2024/03/10 13:24:12;;;;;;;20.35;12.93;;;15.60;99.90;;;;;;8399349;28;20139;-70
2024/03/10 13:28:14;;;;;;;20.00;12.85;;;15.70;99.90;;;;;;8390002;28;20127;-70
2024/03/10 13:32:16;;;;;;;21.10;13.95;;;15.60;99.90;;;;;;8400468;28;20578;-70
2024/03/10 13:36:19;;;;;;;18.98;13.00;;;15.60;99.90;;;;;;8399345;28;20048;-70
2024/03/10 13:40:22;;;;;;;21.88;13.75;;;15.60;99.90;;;;;;8390305;28;20173;-70
2024/03/10 13:44:27;;;;;;;22.50;14.45;;;15.60;99.90;;;;;;8391494;28;20064;-70
2024/03/10 13:48:33;;;;;;;21.10;13.48;;;15.60;99.90;;;;;;8390475;28;20044;-70
2024/03/10 13:52:40;;;;;;;19.75;13.45;;;15.60;99.90;;;;;;8392634;28;20048;-70
2024/03/10 13:56:44;;;;;;;20.40;13.43;;;15.80;99.90;;;;;;8399673;28;20403;-70
2024/03/10 14:00:46;;;;;;;21.10;13.73;;;15.80;99.90;;;;;;8391801;28;20109;-70
2024/03/10 14:04:48;;;;;;;20.98;13.88;;;15.70;99.90;;;;;;8382703;28;20055;-70
2024/03/10 14:08:50;;;;;;;21.02;14.30;;;15.70;99.90;;;;;;8394739;28;20093;-70
2024/03/10 14:12:52;;;;;;;21.23;13.93;;;15.60;99.90;;;;;;8393070;28;20117;-70
2024/03/10 14:16:57;;;;;;;21.70;14.95;;;15.40;99.90;;;;;;8398718;28;20048;-70
2024/03/10 14:21:01;;;;;;;20.98;14.15;;;15.10;99.90;;;;;;8395025;28;20144;-70
2024/03/10 14:25:03;;;;;;;21.80;13.88;;;15.00;99.90;;;;;;8398859;28;20055;-70
2024/03/10 14:29:08;;;;;;;21.80;14.57;;;14.80;99.90;;;;;;8397455;28;20573;-70
2024/03/10 14:33:11;;;;;;;21.13;13.48;;;14.70;99.90;;;;;;8394266;28;20087;-71
2024/03/10 14:37:13;;;;;;;19.48;13.02;;;14.60;99.90;;;;;;8386158;28;20051;-71
2024/03/10 14:41:15;;;;;;;24.10;15.57;;;14.60;99.90;;;;;;8383512;28;20067;-71
2024/03/10 14:45:18;;;;;;;22.38;15.32;;;14.40;99.90;;;;;;8391888;28;20052;-70
2024/03/10 14:49:21;;;;;;;23.08;14.65;;;14.40;99.90;;;;;;8393768;28;20052;-71
2024/03/10 14:53:23;;;;;;;23.35;14.93;;;14.40;99.90;;;;;;8396519;28;20048;-71
2024/03/10 14:57:27;;;;;;;24.85;14.73;;;14.40;99.90;;;;;;8387309;28;20400;-71
2024/03/10 15:01:30;;;;;;;22.55;15.32;;;14.40;99.90;;;;;;8382175;28;20380;-71
2024/03/10 15:05:36;;;;;;;25.23;14.98;;;14.40;99.90;;;;;;8385481;28;20147;-71
2024/03/10 15:09:38;;;;;;;22.88;14.50;;;14.40;99.90;;;;;;8392369;28;20065;-71
2024/03/10 15:13:40;;;;;;;24.48;15.52;;;14.30;99.90;;;;;;8391043;28;20125;-71
2024/03/10 15:17:42;;;;;;;20.88;13.90;;;14.20;99.90;;;;;;8384345;28;20047;-71
2024/03/10 15:21:44;;;;;;;23.35;14.73;;;14.20;99.90;;;;;;8385680;28;20685;-71
2024/03/10 15:25:49;;;;;;;23.23;15.32;;;14.20;99.90;;;;;;8393418;28;20412;-71
2024/03/10 15:29:51;;;;;;;23.42;14.68;;;14.20;99.90;;;;;;8390939;28;20048;-71
2024/03/10 15:33:54;;;;;;;21.48;14.20;;;14.20;99.90;;;;;;8397867;28;20044;-71
2024/03/10 15:37:56;;;;;;;23.92;15.45;;;14.10;99.90;;;;;;8395882;28;20048;-71
2024/03/10 15:41:59;;;;;;;23.10;15.50;;;14.10;99.90;;;;;;8381308;28;20040;-71
2024/03/10 15:46:01;;;;;;;21.60;14.45;;;14.00;99.90;;;;;;8375220;28;20059;-71
2024/03/10 15:50:04;;;;;;;23.05;14.90;;;14.00;99.90;;;;;;8390758;28;20129;-71
2024/03/10 15:54:06;;;;;;;22.83;14.27;;;14.00;99.90;;;;;;8389896;28;20040;-71
2024/03/10 15:58:09;;;;;;;22.77;14.88;;;14.00;99.90;;;;;;8396681;28;20048;-71
2024/03/10 16:02:13;;;;;;;23.80;15.15;;;14.00;99.90;;;;;;8391595;28;20072;-71
2024/03/10 16:06:16;;;;;;;21.75;14.75;;;14.00;99.90;;;;;;8390157;28;20044;-71
2024/03/10 16:10:18;;;;;;;21.77;15.05;;;13.90;99.90;;;;;;8371667;28;20048;-71
2024/03/10 16:14:20;;;;;;;21.05;13.98;;;13.90;99.90;;;;;;8386282;28;20057;-71
2024/03/10 16:18:25;;;;;;;25.08;15.45;;;13.80;99.90;;;;;;8385899;28;20041;-71
2024/03/10 16:22:26;;;;;;;22.98;15.40;;;13.80;99.90;;;;;;8400989;28;20044;-71
2024/03/10 16:26:29;;;;;;;22.77;14.82;;;13.70;99.90;;;;;;8392052;28;20044;-71
2024/03/10 16:30:31;;;;;;;21.77;14.68;;;13.70;99.90;;;;;;8393256;28;20050;-71
2024/03/10 16:34:32;;;;;;;22.98;15.07;;;13.60;99.90;;;;;;8388005;28;20052;-72
2024/03/10 16:38:36;;;;;;;24.10;15.18;;;13.50;99.90;;;;;;8388563;28;20040;-71
2024/03/10 16:42:43;;;;;;;23.92;15.20;;;13.40;99.90;;;;;;8388119;28;20049;-71
2024/03/10 16:46:45;;;;;;;24.67;15.23;;;13.40;99.90;;;;;;8386931;28;20101;-71
2024/03/10 16:50:49;;;;;;;26.27;16.05;;;13.30;99.90;;;;;;8388335;28;20048;-71
2024/03/10 16:54:51;;;;;;;23.05;15.30;;;13.10;99.90;;;;;;8390883;28;20036;-71
2024/03/10 16:58:53;;;;;;;21.60;14.07;;;13.00;99.90;;;;;;8389084;28;20048;-71
2024/03/10 17:02:54;;;;;;;21.00;13.65;;;13.00;99.90;;;;;;8371530;28;20449;-71
2024/03/10 17:06:58;;;;;;;22.77;15.13;;;12.80;99.90;;;;;;8386798;28;20052;-71
2024/03/10 17:11:01;;;;;;;22.83;14.82;;;12.70;99.90;;;;;;8386927;28;20052;-71
2024/03/10 17:15:08;;;;;;;23.73;14.82;;;12.60;99.90;;;;;;8389904;28;20480;-71
2024/03/10 17:19:11;;;;;;;22.85;15.13;;;12.50;99.90;;;;;;8379548;28;20071;-71
2024/03/10 17:23:13;;;;;;;21.30;14.20;;;12.50;99.90;;;;;;8374843;28;20331;-71
2024/03/10 17:27:15;;;;;;;20.88;13.95;;;12.40;99.90;;;;;;8371819;28;20044;-71
2024/03/10 17:31:17;;;;;;;;;;;12.40;99.90;;;;;;8371848;28;19932;-71
2024/03/10 17:35:19;;;;;;;;;;;12.30;99.90;;;;;;8377147;28;20320;-71
2024/03/10 17:39:22;;;;;;;;;;;12.20;99.90;;;;;;8389730;28;19928;-71
2024/03/10 17:43:24;;;;;;;;;;;12.20;99.90;;;;;;8386893;28;19939;-71
2024/03/10 17:47:25;;;;;;;;;;;12.10;99.90;;;;;;8388555;28;19928;-71
2024/03/10 17:51:28;;;;;;;;;;;12.00;99.90;;;;;;8373648;28;19967;-71
2024/03/10 17:55:30;;;;;;;;;;;12.00;99.90;;;;;;8388563;28;19932;-71
2024/03/10 17:59:32;;;;;;;;;;;11.90;99.90;;;;;;8391322;28;19929;-71
2024/03/10 18:03:36;;;;;;;;;;;11.80;99.90;;;;;;8380880;28;19931;-71
2024/03/10 18:07:38;;;;;;;;;;;11.80;99.90;;;;;;8396238;28;19928;-71
2024/03/10 18:11:40;;;;;;;;;;;11.70;99.90;;;;;;8389061;28;19956;-71
2024/03/10 18:15:42;;;;;;;;;;;11.70;99.90;;;;;;8392807;28;19936;-71
2024/03/10 18:19:44;;;;;;;;;;;11.60;99.90;;;;;;8385396;28;19989;-71
2024/03/10 18:23:46;;;;;;;;;;;11.60;99.90;;;;;;8394474;28;20197;-71
2024/03/10 18:27:47;;;;;;;;;;;11.60;99.90;;;;;;8397481;28;20003;-71
2024/03/10 18:31:49;;;;;;;;;;;11.50;99.90;;;;;;8401258;28;19927;-71
2024/03/10 18:35:51;;;;;;;;;;;11.50;99.90;;;;;;8385959;28;19932;-71
2024/03/10 18:39:54;;;;;;;;;;;11.40;99.90;;;;;;8406986;28;19927;-71
2024/03/10 18:43:56;;;;;;;;;;;11.40;99.90;;;;;;8384464;28;19924;-70
2024/03/10 18:47:58;;;;;;;;;;;11.30;99.90;;;;;;8379463;28;20032;-71
2024/03/10 18:52:00;;;;;;;;;;;11.30;99.90;;;;;;8391610;28;19971;-71
2024/03/10 18:56:02;;;;;;;;;;;11.30;99.90;;;;;;8397325;28;19932;-71
2024/03/10 19:00:07;;;;;;;;;;;11.20;99.90;;;;;;8374695;28;19924;-71
2024/03/10 19:04:12;;;;;;;;;;;11.20;99.90;;;;;;8376751;28;19924;-71
2024/03/10 19:08:14;;;;;;;;;;;11.20;99.90;;;;;;8394801;28;20375;-71
2024/03/10 19:12:18;;;;;;;;;;;11.10;99.90;;;;;;8378295;28;19989;-71
2024/03/10 19:16:23;;;;;;;;;;;11.10;99.90;;;;;;8393756;28;19974;-71
2024/03/10 19:20:25;;;;;;;;;;;11.00;99.90;;;;;;8383770;28;19935;-71
2024/03/10 19:24:31;;;;;;;;;;;11.00;99.90;;;;;;8391501;28;20306;-71
2024/03/10 19:28:33;;;;;;;;;;;10.90;99.90;;;;;;8394695;28;19932;-71
2024/03/10 19:32:35;;;;;;;;;;;10.90;99.90;;;;;;8392525;28;19924;-71
2024/03/10 19:36:40;;;;;;;;;;;10.90;99.90;;;;;;8391032;28;19924;-71
2024/03/10 19:40:41;;;;;;;;;;;10.90;99.90;;;;;;8390764;28;19946;-71
2024/03/10 19:44:45;;;;;;;;;;;10.90;99.90;;;;;;8395027;28;20390;-71
2024/03/10 19:48:48;;;;;;;;;;;10.80;99.90;;;;;;8397972;28;19928;-71
2024/03/10 19:52:50;;;;;;;;;;;10.80;99.90;;;;;;8392678;28;20445;-70
2024/03/10 19:56:51;;;;;;;;;;;10.70;99.90;;;;;;8374703;28;20296;-71
2024/03/10 20:00:53;;;;;;;;;;;10.70;99.90;;;;;;8395181;28;19936;-70
2024/03/10 20:04:55;;;;;;;;;;;10.80;99.90;;;;;;8394528;28;19929;-71
2024/03/10 20:08:59;;;;;;;;;;;10.70;99.90;;;;;;8396635;28;19928;-71
2024/03/10 20:13:04;;;;;;;;;;;10.70;99.90;;;;;;8376472;28;19982;-71
2024/03/10 20:17:05;;;;;;;;;;;10.70;99.90;;;;;;8395721;28;19985;-71
2024/03/10 20:21:07;;;;;;;;;;;10.70;99.90;;;;;;8385692;28;20392;-71
2024/03/10 20:25:12;;;;;;;;;;;10.60;99.90;;;;;;8395361;28;19931;-71
2024/03/10 20:29:14;;;;;;;;;;;10.60;99.90;;;;;;8393276;28;19924;-71
2024/03/10 20:33:15;;;;;;;;;;;10.60;99.90;;;;;;8376778;28;19932;-71
2024/03/10 20:37:40;;;;;;;;;;;10.60;99.90;;;;;;8392146;28;19924;-71
2024/03/10 20:41:42;;;;;;;;;;;10.60;99.90;;;;;;8379511;28;19976;-71
2024/03/10 20:45:44;;;;;;;;;;;10.50;99.90;;;;;;8393920;28;19933;-71
2024/03/10 20:49:56;;;;;;;;;;;10.50;99.90;;;;;;8408683;28;19924;-71
2024/03/10 20:53:57;;;;;;;;;;;10.50;99.90;;;;;;8390796;28;19932;-71
2024/03/10 20:57:59;;;;;;;;;;;10.50;99.90;;;;;;8389386;28;20003;-71
2024/03/10 21:02:01;;;;;;;;;;;10.40;99.90;;;;;;8396338;28;19932;-71
2024/03/10 21:11:07;;;;;;;;;;;10.40;99.90;;;;;;8388233;28;20021;-71
2024/03/10 21:15:10;;;;;;;;;;;10.40;99.90;;;;;;8379945;28;19928;-71
2024/03/10 21:19:13;;;;;;;;;;;10.40;99.90;;;;;;8383091;28;19935;-71
2024/03/10 21:23:15;;;;;;;;;;;10.40;99.90;;;;;;8390662;28;19925;-71
2024/03/10 21:27:17;;;;;;;;;;;10.40;99.90;;;;;;8387036;28;19955;-71
2024/03/10 21:31:18;;;;;;;;;;;10.30;99.90;;;;;;8388811;28;19928;-71
2024/03/10 21:35:22;;;;;;;;;;;10.30;99.90;;;;;;8369428;28;19932;-71
2024/03/10 21:39:24;;;;;;;;;;;10.30;99.90;;;;;;8372341;28;19971;-71
2024/03/10 21:43:27;;;;;;;;;;;10.30;99.90;;;;;;8389097;28;19982;-71
2024/03/10 21:47:29;;;;;;;;;;;10.30;99.90;;;;;;8387561;28;19936;-71
2024/03/10 21:51:32;;;;;;;;;;;10.30;99.90;;;;;;8397454;28;19998;-71
2024/03/10 21:55:34;;;;;;;;;;;10.30;99.90;;;;;;8396847;28;20364;-71
2024/03/10 21:59:36;;;;;;;;;;;10.20;99.90;;;;;;8388164;28;20399;-71
2024/03/10 22:03:38;;;;;;;;;;;10.20;99.90;;;;;;8417237;28;19982;-71
2024/03/10 22:07:41;;;;;;;;;;;10.20;99.90;;;;;;8419410;28;20024;-71
2024/03/10 22:11:43;;;;;;;;;;;10.20;99.90;;;;;;8416850;28;20303;-71
2024/03/10 22:15:45;;;;;;;;;;;10.20;99.90;;;;;;8404819;28;20011;-71
2024/03/10 22:19:48;;;;;;;;;;;10.20;99.90;;;;;;8418771;28;19924;-71
2024/03/10 22:23:50;;;;;;;;;;;10.20;99.90;;;;;;8414859;28;19931;-71
2024/03/10 22:32:49;;;;;;;;;;;10.10;99.90;;;;;;8415403;28;19918;-71
2024/03/10 22:36:51;;;;;;;;;;;10.10;99.90;;;;;;8417728;28;20403;-71
2024/03/10 22:45:56;;;;;;;;;;;10.10;99.90;;;;;;8415026;28;19969;-71
2024/03/10 22:49:59;;;;;;;;;;;10.00;99.90;;;;;;8422960;28;19928;-71
2024/03/10 22:54:01;;;;;;;;;;;10.00;99.90;;;;;;8406890;28;20082;-71
2024/03/10 22:58:03;;;;;;;;;;;10.00;99.90;;;;;;8412990;28;20398;-71
2024/03/10 23:02:05;;;;;;;;;;;10.00;99.90;;;;;;8419036;28;19924;-71
2024/03/10 23:06:07;;;;;;;;;;;10.00;99.90;;;;;;8423534;28;20007;-71
2024/03/10 23:10:11;;;;;;;;;;;10.00;99.90;;;;;;8407039;28;20394;-71
2024/03/10 23:14:13;;;;;;;;;;;10.00;99.90;;;;;;8404062;28;19977;-70
2024/03/10 23:18:33;;;;;;;;;;;10.00;99.90;;;;;;8421077;28;20395;-71
2024/03/10 23:22:35;;;;;;;;;;;9.90;99.90;;;;;;8402711;28;20280;-71
2024/03/10 23:26:37;;;;;;;;;;;9.90;99.90;;;;;;8415888;28;19924;-71
2024/03/10 23:30:39;;;;;;;;;;;9.80;99.90;;;;;;8416908;28;19935;-71
2024/03/10 23:34:41;;;;;;;;;;;9.80;99.90;;;;;;8418202;28;20387;-71
2024/03/10 23:38:43;;;;;;;;;;;9.80;99.90;;;;;;8418383;28;19924;-71
2024/03/10 23:42:47;;;;;;;;;;;9.80;99.90;;;;;;8416429;28;19932;-71
2024/03/10 23:46:48;;;;;;;;;;;9.70;99.90;;;;;;8418283;28;19935;-71
2024/03/10 23:50:51;;;;;;;;;;;9.80;99.90;;;;;;8392196;28;19928;-71
2024/03/10 23:54:53;;;;;;;;;;;9.70;99.90;;;;;;8402812;28;19924;-71
2024/03/10 23:58:54;;;;;;;;;;;9.70;99.90;;;;;;8420249;28;19924;-71
